Time;durP1;ratioP1;P1;durP2;ratioP2;P2;SDS_P1;SDS_P2;PMS_P1;PMS_P2;Temp;Humidity;BMP_temperature;BMP_pressure;BME280_temperature;BME280_humidity;BME280_pressure;Samples;Min_cycle;Max_cycle;Signal;HPM_P1;HPM_P2
2023/10/27 00:02:22;;;;;;;15.20;3.10;;;;;;;13.07;100.00;98591.47;7359437;19;20495;-64
2023/10/27 00:04:49;;;;;;;9.65;1.83;;;;;;;13.06;100.00;98591.69;7357353;19;20011;-65
2023/10/27 00:07:19;;;;;;;10.40;3.10;;;;;;;13.03;100.00;98600.88;7357727;19;20022;-64
2023/10/27 00:09:46;;;;;;;7.70;2.28;;;;;;;13.04;100.00;98597.22;7357634;19;20011;-64
2023/10/27 00:12:13;;;;;;;10.23;2.03;;;;;;;13.03;100.00;98597.44;7361242;19;20291;-64
2023/10/27 00:14:40;;;;;;;11.02;1.92;;;;;;;13.02;100.00;98601.09;7358099;19;20018;-63
2023/10/27 00:17:07;;;;;;;10.18;2.17;;;;;;;13.02;100.00;98603.72;7361097;19;20289;-64
2023/10/27 00:19:34;;;;;;;10.15;2.30;;;;;;;13.01;100.00;98604.75;7356102;19;20022;-63
2023/10/27 00:22:01;;;;;;;9.73;1.80;;;;;;;13.00;100.00;98603.16;7359396;19;20010;-64
2023/10/27 00:24:28;;;;;;;8.02;2.03;;;;;;;12.95;100.00;98598.56;7359200;19;20019;-63
2023/10/27 00:26:56;;;;;;;12.15;2.30;;;;;;;12.94;100.00;98598.78;7359502;19;20532;-64
2023/10/27 00:29:23;;;;;;;20.38;2.97;;;;;;;12.93;100.00;98599.81;7361257;19;20042;-64
2023/10/27 00:31:50;;;;;;;8.05;2.28;;;;;;;12.93;100.00;98594.53;7359994;19;20020;-64
2023/10/27 00:34:17;;;;;;;11.25;2.30;;;;;;;12.91;100.00;98591.28;7349515;19;20483;-64
2023/10/27 00:36:44;;;;;;;12.75;2.85;;;;;;;12.91;100.00;98599.19;7359268;19;20007;-64
2023/10/27 00:39:11;;;;;;;10.55;3.67;;;;;;;12.84;100.00;98594.84;7360514;19;20026;-64
2023/10/27 00:41:38;;;;;;;11.48;3.10;;;;;;;12.83;100.00;98592.41;7359609;19;20017;-64
2023/10/27 00:44:05;;;;;;;10.70;2.83;;;;;;;12.77;100.00;98590.66;7357539;19;20015;-63
2023/10/27 00:46:32;;;;;;;10.70;2.85;;;;;;;12.73;100.00;98590.31;7358152;19;20020;-63
2023/10/27 00:49:00;;;;;;;13.18;3.85;;;;;;;12.73;100.00;98600.06;7354582;19;20991;-62
2023/10/27 00:51:28;;;;;;;10.43;3.33;;;;;;;12.71;100.00;98587.06;7358271;19;20101;-64
2023/10/27 00:53:56;;;;;;;12.60;3.05;;;;;;;12.71;100.00;98586.25;7354988;19;20090;-64
2023/10/27 00:56:24;;;;;;;11.13;2.67;;;;;;;12.72;100.00;98577.31;7360656;19;20029;-65
2023/10/27 00:58:51;;;;;;;13.85;3.05;;;;;;;12.72;100.00;98586.06;7356561;19;20014;-63
2023/10/27 01:01:19;;;;;;;10.15;3.72;;;;;;;12.76;100.00;98581.94;7358982;19;20078;-64
2023/10/27 01:03:46;;;;;;;10.82;2.92;;;;;;;12.74;100.00;98584.00;7349511;19;21100;-64
2023/10/27 01:06:13;;;;;;;12.90;4.03;;;;;;;12.74;100.00;98572.66;7358808;19;20018;-63
2023/10/27 01:08:40;;;;;;;13.73;3.13;;;;;;;12.69;100.00;98565.41;7382822;19;20018;-64
2023/10/27 01:11:08;;;;;;;13.35;3.00;;;;;;;12.65;100.00;98566.03;7378769;19;20021;-64
2023/10/27 01:13:35;;;;;;;9.73;2.95;;;;;;;12.64;100.00;98569.72;7353843;19;20026;-64
2023/10/27 01:16:02;;;;;;;13.23;2.60;;;;;;;12.66;100.00;98570.28;7360037;19;20020;-64
2023/10/27 01:18:29;;;;;;;9.57;2.15;;;;;;;12.67;100.00;98572.72;7354787;19;20037;-65
2023/10/27 01:20:56;;;;;;;10.95;3.00;;;;;;;12.64;100.00;98564.44;7358231;19;20098;-65
2023/10/27 01:23:23;;;;;;;13.48;3.72;;;;;;;12.62;100.00;98555.94;7357822;19;20010;-63
2023/10/27 01:25:50;;;;;;;13.82;2.28;;;;;;;12.60;100.00;98564.06;7357229;19;20043;-63
2023/10/27 01:28:17;;;;;;;16.00;3.20;;;;;;;12.61;100.00;98564.88;7350162;19;20264;-64
2023/10/27 01:30:44;;;;;;;9.98;2.45;;;;;;;12.62;100.00;98562.03;7357401;19;20557;-64
2023/10/27 01:33:11;;;;;;;8.32;2.45;;;;;;;12.66;100.00;98565.00;7354931;19;20022;-64
2023/10/27 01:35:38;;;;;;;13.18;2.83;;;;;;;12.71;100.00;98567.78;7352416;19;20030;-63
2023/10/27 01:38:05;;;;;;;15.10;2.83;;;;;;;12.73;100.00;98561.28;7355105;19;20011;-64
2023/10/27 01:40:32;;;;;;;9.70;2.33;;;;;;;12.73;100.00;98566.56;7357247;19;20033;-65
2023/10/27 01:42:59;;;;;;;8.63;2.25;;;;;;;12.73;100.00;98561.28;7358679;19;21927;-64
2023/10/27 01:45:26;;;;;;;19.08;1.90;;;;;;;12.70;100.00;98556.44;7355977;19;20010;-63
2023/10/27 01:47:53;;;;;;;11.98;2.03;;;;;;;12.70;100.00;98556.44;7357929;19;20014;-63
2023/10/27 01:50:20;;;;;;;12.07;2.10;;;;;;;12.70;100.00;98564.34;7356372;19;20026;-63
2023/10/27 01:52:47;;;;;;;12.07;1.70;;;;;;;12.67;100.00;98551.63;7359765;19;20327;-64
2023/10/27 01:55:14;;;;;;;10.95;2.03;;;;;;;12.68;100.00;98558.50;7355966;19;20010;-65
2023/10/27 01:57:41;;;;;;;10.75;2.92;;;;;;;12.65;100.00;98550.22;7356849;19;20010;-64
2023/10/27 02:00:09;;;;;;;7.65;2.45;;;;;;;12.64;100.00;98549.44;7354243;19;20014;-65
2023/10/27 02:02:36;;;;;;;21.92;3.28;;;;;;;12.63;100.00;98554.91;7356824;19;20621;-64
2023/10/27 02:05:04;;;;;;;10.77;2.63;;;;;;;12.63;100.00;98555.72;7354494;19;20425;-64
2023/10/27 02:07:31;;;;;;;12.35;3.42;;;;;;;12.59;100.00;98551.94;7356567;19;20014;-64
2023/10/27 02:10:01;;;;;;;13.70;3.08;;;;;;;12.56;100.00;98549.72;7355541;19;20033;-64
2023/10/27 02:12:29;;;;;;;10.40;2.60;;;;;;;12.56;100.00;98551.53;7354806;19;20018;-63
2023/10/27 02:14:56;;;;;;;27.40;3.85;;;;;;;12.51;100.00;98546.94;7351949;19;20018;-63
2023/10/27 02:17:23;;;;;;;9.23;3.13;;;;;;;12.51;100.00;98546.94;7357128;19;20015;-63
2023/10/27 02:19:54;;;;;;;10.80;2.33;;;;;;;12.49;100.00;98543.75;7352580;19;20030;-64
2023/10/27 02:22:22;;;;;;;14.02;2.95;;;;;;;12.46;100.00;98538.88;7359538;19;20101;-64
2023/10/27 02:24:50;;;;;;;12.20;3.42;;;;;;;12.41;100.00;98534.28;7355040;19;20263;-64
2023/10/27 02:27:17;;;;;;;10.07;2.63;;;;;;;12.36;100.00;98514.88;7352680;19;20039;-63
2023/10/27 02:29:44;;;;;;;9.73;2.45;;;;;;;12.35;100.00;98515.88;7355485;19;20113;-63
2023/10/27 02:32:11;;;;;;;17.90;3.45;;;;;;;12.33;100.00;98518.78;7354687;19;20117;-65
2023/10/27 02:34:38;;;;;;;15.45;2.83;;;;;;;12.30;100.00;98521.03;7348454;19;20026;-63
2023/10/27 02:37:05;;;;;;;9.73;3.03;;;;;;;12.27;100.00;98513.56;7351629;19;20893;-62
2023/10/27 02:39:32;;;;;;;9.07;2.72;;;;;;;12.22;100.00;98508.97;7354726;19;20348;-64
2023/10/27 02:41:59;;;;;;;10.70;3.45;;;;;;;12.24;100.00;98509.53;7358319;19;20021;-63
2023/10/27 02:44:26;;;;;;;14.00;3.47;;;;;;;12.27;100.00;98509.09;7360790;19;20021;-63
2023/10/27 02:46:52;;;;;;;15.23;2.60;;;;;;;12.27;100.00;98505.66;7363269;19;20022;-63
2023/10/27 02:49:19;;;;;;;10.48;2.88;;;;;;;12.23;100.00;98507.13;7360541;19;20014;-64
2023/10/27 02:51:46;;;;;;;10.65;2.75;;;;;;;12.23;100.00;98497.38;7360394;19;20007;-63
2023/10/27 02:54:13;;;;;;;70.68;6.18;;;;;;;12.25;100.00;98502.41;7357936;19;20018;-63
2023/10/27 02:56:40;;;;;;;12.50;3.22;;;;;;;12.28;100.00;98502.81;7364011;19;20460;-64
2023/10/27 02:59:09;;;;;;;11.50;3.40;;;;;;;12.32;100.00;98498.69;7361614;19;20716;-63
2023/10/27 03:01:37;;;;;;;10.70;2.70;;;;;;;12.35;100.00;98505.34;7365001;19;20555;-64
2023/10/27 03:04:04;;;;;;;12.40;2.90;;;;;;;12.32;100.00;98506.59;7356177;19;20387;-63
2023/10/27 03:06:32;;;;;;;10.15;3.22;;;;;;;12.27;100.00;98506.47;7361254;19;20043;-64
2023/10/27 03:08:58;;;;;;;9.23;2.63;;;;;;;12.27;100.00;98510.94;7361774;19;20013;-64
2023/10/27 03:11:25;;;;;;;12.02;3.38;;;;;;;12.30;100.00;98499.94;7362217;19;20102;-64
2023/10/27 03:13:52;;;;;;;8.35;2.60;;;;;;;12.33;100.00;98504.78;7361161;19;20085;-63
2023/10/27 03:16:19;;;;;;;12.45;3.35;;;;;;;12.34;100.00;98509.81;7361751;19;20022;-63
2023/10/27 03:18:46;;;;;;;12.35;3.15;;;;;;;12.35;100.00;98516.69;7357009;19;20073;-65
2023/10/27 03:21:13;;;;;;;12.88;3.60;;;;;;;12.36;100.00;98520.94;7358260;19;20028;-63
2023/10/27 03:23:40;;;;;;;14.45;4.13;;;;;;;12.37;100.00;98517.28;7360834;19;20025;-63
2023/10/27 03:26:08;;;;;;;11.23;3.38;;;;;;;12.38;100.00;98523.38;7358455;19;20338;-64
2023/10/27 03:28:35;;;;;;;11.65;3.70;;;;;;;12.39;100.00;98519.72;7383152;19;20014;-63
2023/10/27 03:31:02;;;;;;;11.95;3.53;;;;;;;12.37;100.00;98522.56;7388216;19;20035;-64
2023/10/27 03:33:30;;;;;;;10.05;3.17;;;;;;;12.32;100.00;98521.63;7355271;19;20455;-65
2023/10/27 03:35:56;;;;;;;10.82;3.67;;;;;;;12.31;100.00;98520.81;7358465;19;20018;-64
2023/10/27 03:38:23;;;;;;;15.38;2.83;;;;;;;12.26;100.00;98522.50;7356312;19;20419;-63
2023/10/27 03:40:50;;;;;;;13.55;3.05;;;;;;;12.20;100.00;98518.91;7362184;19;20756;-63
2023/10/27 03:43:17;;;;;;;10.38;3.58;;;;;;;12.16;100.00;98511.66;7360019;19;20085;-63
2023/10/27 03:45:44;;;;;;;12.20;3.17;;;;;;;12.14;100.00;98506.59;7359882;19;20033;-64
2023/10/27 03:48:11;;;;;;;12.23;3.60;;;;;;;12.14;100.00;98514.50;7354530;19;20019;-63
2023/10/27 03:50:39;;;;;;;8.00;2.72;;;;;;;12.15;100.00;98523.22;7361285;19;20433;-65
2023/10/27 03:53:06;;;;;;;14.48;4.10;;;;;;;12.16;100.00;98517.75;7359366;19;20320;-64
2023/10/27 03:55:33;;;;;;;13.02;3.03;;;;;;;12.15;100.00;98521.41;7355787;19;20020;-63
2023/10/27 03:58:14;;;;;;;19.27;3.50;;;;;;;12.17;100.00;98516.72;7361219;19;21093;-63
2023/10/27 04:00:42;;;;;;;11.32;3.75;;;;;;;12.19;100.00;98519.16;7360386;19;20031;-63
2023/10/27 04:03:13;;;;;;;10.32;2.85;;;;;;;12.20;100.00;98518.09;7356367;19;20197;-65
2023/10/27 04:05:40;;;;;;;14.27;3.55;;;;;;;12.22;100.00;98521.34;7355523;19;20375;-65
2023/10/27 04:08:07;;;;;;;80.95;8.05;;;;;;;12.26;100.00;98519.84;7362270;19;20020;-66
2023/10/27 04:10:37;;;;;;;15.77;3.45;;;;;;;12.32;100.00;98524.25;7360046;19;20006;-64
2023/10/27 04:13:04;;;;;;;20.17;6.20;;;;;;;12.27;100.00;98519.66;7360199;19;20022;-63
2023/10/27 04:15:31;;;;;;;11.68;3.80;;;;;;;12.27;100.00;98521.47;7359286;19;20018;-63
2023/10/27 04:18:00;;;;;;;11.35;3.38;;;;;;;12.27;100.00;98519.66;7357898;19;20362;-64
2023/10/27 04:20:27;;;;;;;12.93;3.40;;;;;;;12.27;100.00;98519.66;7379135;19;20023;-63
2023/10/27 04:22:54;;;;;;;12.18;2.80;;;;;;;12.25;100.00;98512.97;7387977;19;20030;-64
2023/10/27 04:25:23;;;;;;;9.82;2.67;;;;;;;12.28;100.00;98518.63;7360251;19;20345;-65
2023/10/27 04:27:50;;;;;;;13.80;2.58;;;;;;;12.30;100.00;98527.09;7355404;19;20014;-64
2023/10/27 04:30:17;;;;;;;9.07;3.13;;;;;;;12.36;100.00;98522.78;7359825;19;20042;-64
2023/10/27 04:32:45;;;;;;;12.23;3.38;;;;;;;12.38;100.00;98523.38;7359035;19;20018;-63
2023/10/27 04:35:13;;;;;;;13.27;2.85;;;;;;;12.39;100.00;98517.09;7356673;19;20190;-64
2023/10/27 04:37:40;;;;;;;10.75;2.80;;;;;;;12.42;100.00;98520.06;7357125;19;20018;-64
2023/10/27 04:40:08;;;;;;;10.35;2.80;;;;;;;12.42;100.00;98514.00;7354164;19;20030;-63
2023/10/27 04:42:35;;;;;;;11.98;2.30;;;;;;;12.41;100.00;98510.53;7360568;19;20090;-64
2023/10/27 04:45:03;;;;;;;12.43;3.35;;;;;;;12.44;100.00;98509.31;7357352;19;20090;-64
2023/10/27 04:47:30;;;;;;;13.88;3.28;;;;;;;12.44;100.00;98509.31;7359422;19;20029;-63
2023/10/27 04:49:57;;;;;;;9.68;2.83;;;;;;;12.48;100.00;98521.03;7350686;19;20038;-63
2023/10/27 04:52:24;;;;;;;14.20;2.88;;;;;;;12.52;100.00;98513.47;7356634;19;21068;-64
2023/10/27 04:54:51;;;;;;;13.80;2.70;;;;;;;12.51;100.00;98512.66;7357151;19;20015;-64
2023/10/27 04:57:18;;;;;;;11.40;2.88;;;;;;;12.53;100.00;98505.34;7375925;19;20363;-64
2023/10/27 04:59:45;;;;;;;11.95;3.35;;;;;;;12.53;100.00;98504.53;7385808;19;20081;-64
2023/10/27 05:02:12;;;;;;;18.45;5.05;;;;;;;12.56;100.00;98510.16;7365123;19;20014;-64
2023/10/27 05:04:39;;;;;;;12.88;3.38;;;;;;;12.58;100.00;98510.75;7352211;19;20045;-63
2023/10/27 05:07:06;;;;;;;9.32;2.35;;;;;;;12.59;100.00;98506.28;7358005;19;20007;-64
2023/10/27 05:09:33;;;;;;;16.88;4.15;;;;;;;12.60;100.00;98510.50;7357332;19;20015;-64
2023/10/27 05:12:02;;;;;;;11.20;3.30;;;;;;;12.64;100.00;98509.84;7358478;19;20018;-64
2023/10/27 05:14:29;;;;;;;9.75;3.47;;;;;;;12.65;100.00;98516.72;7357743;19;20199;-64
2023/10/27 05:16:56;;;;;;;12.18;2.90;;;;;;;12.69;100.00;98519.75;7360275;19;20486;-64
2023/10/27 05:19:24;;;;;;;9.90;3.22;;;;;;;12.75;100.00;98519.63;7351871;19;20596;-64
2023/10/27 05:21:51;;;;;;;14.63;2.40;;;;;;;12.80;100.00;98526.88;7359974;19;20018;-64
2023/10/27 05:24:19;;;;;;;11.88;2.33;;;;;;;12.82;100.00;98523.00;7356482;19;20102;-64
2023/10/27 05:26:46;;;;;;;8.52;2.05;;;;;;;12.84;100.00;98523.59;7357415;19;20117;-64
2023/10/27 05:29:13;;;;;;;10.30;2.10;;;;;;;12.86;100.00;98523.34;7358447;19;20606;-64
2023/10/27 05:31:41;;;;;;;11.85;2.30;;;;;;;12.86;100.00;98521.50;7359647;19;20467;-64
2023/10/27 05:34:08;;;;;;;12.35;5.97;;;;;;;12.88;100.00;98523.94;7353554;19;20129;-63
2023/10/27 05:36:35;;;;;;;12.07;2.22;;;;;;;12.92;100.00;98522.44;7355649;19;20014;-64
2023/10/27 05:39:02;;;;;;;10.13;2.25;;;;;;;12.92;100.00;98526.91;7353064;19;20492;-64
2023/10/27 05:41:29;;;;;;;13.50;2.58;;;;;;;12.92;100.00;98526.91;7355752;19;21325;-64
2023/10/27 05:43:56;;;;;;;11.00;2.20;;;;;;;12.90;100.00;98521.84;7355939;19;20695;-63
2023/10/27 05:46:23;;;;;;;7.22;1.70;;;;;;;12.89;100.00;98509.72;7356016;19;20010;-63
2023/10/27 05:48:51;;;;;;;12.02;2.03;;;;;;;12.89;100.00;98511.53;7353520;19;20102;-64
2023/10/27 05:51:18;;;;;;;9.23;1.88;;;;;;;12.92;100.00;98521.63;7358514;19;20707;-64
2023/10/27 05:53:45;;;;;;;11.82;2.30;;;;;;;12.93;100.00;98517.97;7357101;19;20269;-64
2023/10/27 05:56:14;;;;;;;11.75;2.03;;;;;;;12.88;100.00;98520.47;7356204;19;20367;-64
2023/10/27 05:58:46;;;;;;;9.50;1.98;;;;;;;12.85;100.00;98519.09;7353681;19;20130;-64
2023/10/27 06:01:14;;;;;;;12.18;2.53;;;;;;;12.84;100.00;98515.66;7365867;19;20037;-65
2023/10/27 06:03:41;;;;;;;12.48;2.78;;;;;;;12.86;100.00;98518.06;7380756;19;20565;-64
2023/10/27 06:06:08;;;;;;;9.98;2.00;;;;;;;12.87;100.00;98517.03;7369347;19;20900;-64
2023/10/27 06:08:40;;;;;;;13.93;2.38;;;;;;;12.90;100.00;98515.78;7355989;19;20705;-64
2023/10/27 06:11:08;;;;;;;12.60;2.80;;;;;;;12.90;100.00;98507.88;7356769;19;20246;-64
2023/10/27 06:13:35;;;;;;;9.93;2.20;;;;;;;12.90;100.00;98506.00;7355250;19;21797;-64
2023/10/27 06:16:02;;;;;;;14.43;2.45;;;;;;;12.89;100.00;98512.34;7353646;19;20035;-64
2023/10/27 06:18:29;;;;;;;11.15;2.63;;;;;;;12.91;100.00;98517.38;7353673;19;20036;-63
2023/10/27 06:20:56;;;;;;;12.98;2.47;;;;;;;12.97;100.00;98529.69;7354683;19;20805;-65
2023/10/27 06:23:24;;;;;;;18.02;3.08;;;;;;;12.99;100.00;98530.28;7356942;19;20014;-64
2023/10/27 06:25:51;;;;;;;10.77;2.95;;;;;;;13.05;100.00;98538.09;7355525;19;20011;-65
2023/10/27 06:28:18;;;;;;;13.20;3.03;;;;;;;13.05;100.00;98524.91;7355219;19;20019;-63
2023/10/27 06:30:45;;;;;;;9.63;2.13;;;;;;;13.05;100.00;98537.31;7355351;19;20048;-65
2023/10/27 06:33:12;;;;;;;12.27;2.33;;;;;;;13.03;100.00;98537.53;7351577;19;20021;-65
2023/10/27 06:35:39;;;;;;;9.70;2.30;;;;;;;13.02;100.00;98543.00;7345878;19;20022;-64
2023/10/27 06:38:06;;;;;;;10.77;2.50;;;;;;;13.02;100.00;98532.47;7356755;19;20029;-64
2023/10/27 06:40:33;;;;;;;14.07;2.00;;;;;;;13.01;100.00;98536.94;7352332;19;20040;-64
2023/10/27 06:43:00;;;;;;;11.48;1.90;;;;;;;13.02;100.00;98525.34;7353002;19;20535;-64
2023/10/27 06:45:28;;;;;;;12.43;1.98;;;;;;;13.04;100.00;98539.13;7350991;19;20022;-65
2023/10/27 06:47:55;;;;;;;11.88;2.95;;;;;;;13.05;100.00;98534.66;7355547;19;20031;-65
2023/10/27 06:50:22;;;;;;;9.80;2.15;;;;;;;13.07;100.00;98537.88;7354763;19;20015;-65
2023/10/27 06:52:49;;;;;;;9.07;1.85;;;;;;;13.08;100.00;98536.84;7354891;19;20025;-64
2023/10/27 06:55:16;;;;;;;17.40;2.63;;;;;;;13.09;100.00;98547.19;7355002;19;20052;-64
2023/10/27 06:57:43;;;;;;;16.45;2.65;;;;;;;13.09;100.00;98549.00;7357840;19;20084;-64
2023/10/27 07:00:11;;;;;;;11.00;2.20;;;;;;;13.08;100.00;98558.78;7352834;19;20011;-64
2023/10/27 07:02:38;;;;;;;11.52;1.83;;;;;;;13.06;100.00;98560.00;7354832;19;20098;-65
2023/10/27 07:05:23;;;;;;;9.80;2.30;;;;;;;13.08;100.00;98556.13;7353084;19;20006;-64
2023/10/27 07:07:52;;;;;;;14.00;3.22;;;;;;;13.08;100.00;98565.88;7355896;19;20031;-64
2023/10/27 07:10:19;;;;;;;16.45;3.33;;;;;;;13.06;100.00;98563.47;7353734;19;20344;-63
2023/10/27 07:12:47;;;;;;;13.82;3.50;;;;;;;13.01;100.00;98571.25;7351491;19;20229;-65
2023/10/27 07:15:14;;;;;;;11.80;2.10;;;;;;;13.04;100.00;98570.00;7353741;19;21369;-64
2023/10/27 07:17:41;;;;;;;11.15;1.92;;;;;;;13.03;100.00;98571.03;7355685;19;20145;-64
2023/10/27 07:20:09;;;;;;;10.10;2.10;;;;;;;13.05;100.00;98571.63;7349430;19;20037;-64
2023/10/27 07:22:36;;;;;;;12.85;2.67;;;;;;;13.06;100.00;98575.84;7348718;19;20014;-64
2023/10/27 07:25:04;;;;;;;10.43;2.30;;;;;;;13.08;100.00;98579.91;7353227;19;20532;-64
2023/10/27 07:27:33;;;;;;;9.90;2.03;;;;;;;13.09;100.00;98578.06;7362474;19;20018;-65
2023/10/27 07:30:00;;;;;;;10.50;2.47;;;;;;;13.11;100.00;98584.75;7385862;19;20006;-63
2023/10/27 07:32:27;;;;;;;11.10;2.30;;;;;;;13.12;100.00;98588.19;7373539;19;20099;-64
2023/10/27 07:34:55;;;;;;;9.27;2.50;;;;;;;13.13;100.00;98592.44;7359092;19;20607;-65
2023/10/27 07:37:23;;;;;;;17.25;3.50;;;;;;;13.18;100.00;98592.59;7358797;19;20566;-64
2023/10/27 07:39:50;;;;;;;14.02;3.00;;;;;;;13.21;100.00;98592.94;7361554;19;20145;-63
2023/10/27 07:42:17;;;;;;;12.90;2.95;;;;;;;13.21;100.00;98592.94;7356605;19;20379;-63
2023/10/27 07:44:44;;;;;;;12.32;2.33;;;;;;;13.23;100.00;98598.81;7360321;19;20776;-63
2023/10/27 07:47:11;;;;;;;7.55;1.60;;;;;;;13.25;100.00;98594.09;7378847;19;20014;-64
2023/10/27 07:49:38;;;;;;;11.93;1.38;;;;;;;13.25;100.00;98606.50;7383293;19;20056;-64
2023/10/27 07:52:05;;;;;;;8.60;1.75;;;;;;;13.23;100.00;98603.28;7368138;19;20788;-64
2023/10/27 07:54:32;;;;;;;12.48;2.13;;;;;;;13.21;100.00;98605.31;7361319;19;20708;-64
2023/10/27 07:56:59;;;;;;;11.52;2.03;;;;;;;13.20;100.00;98611.66;7361156;19;20015;-64
2023/10/27 07:59:27;;;;;;;11.40;2.15;;;;;;;13.21;100.00;98605.31;7361299;19;20515;-63
2023/10/27 08:01:57;;;;;;;10.27;1.90;;;;;;;13.18;100.00;98609.22;7359536;19;20022;-63
2023/10/27 08:04:27;;;;;;;10.30;1.75;;;;;;;13.21;100.00;98621.16;7356948;19;20025;-64
2023/10/27 08:06:56;;;;;;;20.95;2.92;;;;;;;13.21;100.00;98615.88;7360785;19;20037;-65
2023/10/27 08:09:23;;;;;;;14.63;2.40;;;;;;;13.24;100.00;98618.91;7360302;19;20281;-63
2023/10/27 08:11:50;;;;;;;21.27;2.38;;;;;;;13.44;100.00;98626.53;7358405;19;20013;-64
2023/10/27 08:14:17;;;;;;;19.40;3.70;;;;;;;13.53;100.00;98621.72;7357607;19;20021;-65
2023/10/27 08:16:45;;;;;;;12.65;2.78;;;;;;;13.59;100.00;98618.19;7363279;19;20809;-64
2023/10/27 08:19:12;;;;;;;13.57;3.53;;;;;;;13.56;100.00;98626.56;7360313;19;20018;-64
2023/10/27 08:21:40;;;;;;;10.55;3.03;;;;;;;13.57;100.00;98623.69;7363693;19;20276;-64
2023/10/27 08:24:08;;;;;;;10.70;3.05;;;;;;;13.57;100.00;98610.47;7362258;19;20010;-65
2023/10/27 08:26:35;;;;;;;11.13;2.33;;;;;;;13.57;100.00;98622.88;7358465;19;20007;-64
2023/10/27 08:29:02;;;;;;;14.15;3.22;;;;;;;13.52;100.00;98620.09;7358728;19;20014;-64
2023/10/27 08:31:29;;;;;;;8.00;2.20;;;;;;;13.51;100.00;98624.59;7353993;19;20013;-63
2023/10/27 08:34:00;;;;;;;10.93;2.55;;;;;;;13.49;100.00;98623.22;7355727;19;20010;-64
2023/10/27 08:36:27;;;;;;;12.60;2.47;;;;;;;13.49;100.00;98626.66;7354837;19;20013;-64
2023/10/27 08:38:55;;;;;;;9.57;2.72;;;;;;;13.52;100.00;98617.47;7358991;19;20641;-64
2023/10/27 08:41:25;;;;;;;9.85;2.55;;;;;;;13.54;100.00;98623.34;7357624;19;20053;-65
2023/10/27 08:43:55;;;;;;;11.48;3.08;;;;;;;13.52;100.00;98620.91;7353067;19;20866;-63
2023/10/27 08:46:32;;;;;;;10.38;2.20;;;;;;;13.47;100.00;98617.34;7355344;19;20022;-65
2023/10/27 08:48:59;;;;;;;13.70;2.72;;;;;;;13.48;100.00;98619.75;7354169;19;20087;-63
2023/10/27 08:51:26;;;;;;;7.15;2.22;;;;;;;13.49;100.00;98616.09;7359373;19;20022;-64
2023/10/27 08:53:53;;;;;;;10.88;2.20;;;;;;;13.49;100.00;98615.28;7359226;19;20078;-63
2023/10/27 08:56:20;;;;;;;13.50;2.10;;;;;;;13.49;100.00;98610.81;7356317;19;20074;-64
2023/10/27 08:58:50;;;;;;;6.68;1.70;;;;;;;13.51;100.00;98605.31;7357028;19;20026;-65
2023/10/27 09:01:17;;;;;;;7.85;1.73;;;;;;;13.49;100.00;98612.66;7358163;19;20308;-65
2023/10/27 09:04:07;;;;;;;6.30;1.48;;;;;;;13.47;100.00;98606.78;7357189;19;20019;-63
2023/10/27 09:06:35;;;;;;;11.90;1.92;;;;;;;13.48;100.00;98600.47;7362841;19;20087;-64
2023/10/27 09:09:05;;;;;;;12.77;4.13;;;;;;;13.49;100.00;98592.31;7360679;19;20439;-64
2023/10/27 09:11:47;;;;;;;7.35;1.38;;;;;;;13.48;100.00;98581.97;7359702;19;20017;-64
2023/10/27 09:14:30;;;;;;;6.38;1.00;;;;;;;13.46;100.00;98589.34;7357179;19;20033;-64
2023/10/27 09:17:06;;;;;;;8.88;0.88;;;;;;;13.45;100.00;98583.25;7361220;19;20011;-64
2023/10/27 09:19:34;;;;;;;5.60;1.00;;;;;;;13.45;100.00;98591.16;7356392;19;20835;-64
2023/10/27 09:22:16;;;;;;;5.88;0.80;;;;;;;13.45;100.00;98588.53;7358100;19;20022;-63
2023/10/27 09:24:43;;;;;;;7.18;0.90;;;;;;;13.53;100.00;98605.88;7359241;19;20106;-65
2023/10/27 09:27:13;;;;;;;7.10;1.00;;;;;;;13.55;100.00;98624.97;7361441;19;20206;-64
2023/10/27 09:29:41;;;;;;;6.40;1.67;;;;;;;13.55;100.00;98601.19;7360819;19;20015;-65
2023/10/27 09:32:25;;;;;;;5.47;0.98;;;;;;;13.57;100.00;98593.81;7360446;19;20322;-65
2023/10/27 09:35:09;;;;;;;5.07;1.00;;;;;;;13.60;100.00;98612.69;7356989;19;20019;-63
2023/10/27 09:37:41;;;;;;;10.70;1.40;;;;;;;13.63;100.00;98614.84;7359304;19;20010;-64
2023/10/27 09:40:13;;;;;;;7.20;1.42;;;;;;;13.64;100.00;98615.66;7355457;19;20014;-64
2023/10/27 09:42:40;;;;;;;7.07;1.17;;;;;;;13.67;100.00;98609.91;7356532;19;20018;-65
2023/10/27 09:45:11;;;;;;;7.97;1.40;;;;;;;13.65;100.00;98615.44;7346577;19;20102;-64
2023/10/27 09:47:41;;;;;;;7.00;1.48;;;;;;;13.64;100.00;98627.03;7354399;19;20815;-64
2023/10/27 09:50:14;;;;;;;5.25;1.20;;;;;;;13.63;100.00;98622.78;7355702;19;20015;-63
2023/10/27 09:52:44;;;;;;;8.05;1.60;;;;;;;13.59;100.00;98623.47;7358563;19;20105;-65
2023/10/27 09:55:14;;;;;;;8.68;2.08;;;;;;;13.58;100.00;98624.50;7357115;19;20011;-64
2023/10/27 09:57:45;;;;;;;7.93;2.63;;;;;;;13.62;100.00;98642.31;7353107;19;20130;-64
2023/10/27 10:00:16;;;;;;;5.18;1.83;;;;;;;13.66;100.00;98637.41;7357239;19;20403;-64
2023/10/27 10:02:45;;;;;;;12.02;2.00;;;;;;;13.71;100.00;98637.53;7358920;19;20014;-64
2023/10/27 10:05:12;;;;;;;7.55;1.95;;;;;;;13.66;100.00;98632.13;7357368;19;20022;-66
2023/10/27 10:07:44;;;;;;;8.02;2.20;;;;;;;13.65;100.00;98636.59;7359185;19;20014;-66
2023/10/27 10:10:34;;;;;;;6.72;2.30;;;;;;;13.69;100.00;98621.88;7359252;19;20018;-67
2023/10/27 10:13:19;;;;;;;8.40;1.77;;;;;;;13.70;100.00;98620.03;7358712;19;20010;-66
2023/10/27 10:16:06;;;;;;;4.53;1.23;;;;;;;13.76;100.00;98626.25;7352884;19;20093;-66
2023/10/27 10:18:33;;;;;;;3.40;0.98;;;;;;;13.81;100.00;98634.31;7352752;19;20045;-66
2023/10/27 10:21:00;;;;;;;5.32;1.67;;;;;;;13.87;100.00;98625.44;7354062;19;21608;-66
2023/10/27 10:23:44;;;;;;;5.40;1.83;;;;;;;13.93;100.00;98625.34;7351676;19;20018;-66
2023/10/27 10:26:11;;;;;;;6.25;1.30;;;;;;;13.94;100.00;98623.50;7377076;19;20029;-68
2023/10/27 10:28:40;;;;;;;5.82;1.13;;;;;;;13.96;100.00;98624.91;7377473;19;20015;-65
2023/10/27 10:31:07;;;;;;;5.13;1.02;;;;;;;13.95;99.92;98618.00;7353935;19;20803;-67
2023/10/27 10:33:35;;;;;;;3.22;1.10;;;;;;;13.94;99.50;98612.94;7347524;19;20015;-66
2023/10/27 10:36:35;;;;;;;7.72;2.20;;;;;;;14.01;100.00;98630.31;7356732;19;20018;-66
2023/10/27 10:39:05;;;;;;;5.97;0.90;;;;;;;14.04;100.00;98629.03;7352575;19;20026;-65
2023/10/27 10:41:42;;;;;;;10.07;1.70;;;;;;;14.10;100.00;98628.13;7357857;19;20452;-65
2023/10/27 10:44:12;;;;;;;5.55;2.45;;;;;;;14.14;100.00;98629.28;7351259;19;20027;-66
2023/10/27 10:46:40;;;;;;;6.60;1.80;;;;;;;14.12;100.00;98626.03;7352924;19;20014;-65
2023/10/27 10:49:09;;;;;;;5.35;0.80;;;;;;;14.14;99.82;98635.38;7349606;19;20018;-67
2023/10/27 10:51:37;;;;;;;3.80;0.70;;;;;;;14.20;99.39;98640.78;7356402;19;20023;-65
2023/10/27 10:54:12;;;;;;;3.63;0.55;;;;;;;14.24;98.63;98636.63;7357925;19;20840;-65
2023/10/27 10:56:40;;;;;;;7.82;0.77;;;;;;;14.27;98.42;98642.28;7358027;19;20026;-66
2023/10/27 10:59:08;;;;;;;2.92;1.20;;;;;;;14.27;98.03;98639.63;7348185;19;20015;-66
2023/10/27 11:01:35;;;;;;;6.40;1.27;;;;;;;14.29;97.92;98639.38;7333767;19;20045;-66
2023/10/27 11:04:02;;;;;;;4.38;0.52;;;;;;;14.32;97.53;98636.28;7355241;19;20050;-66
2023/10/27 11:06:29;;;;;;;3.90;0.40;;;;;;;14.36;97.47;98632.13;7362415;19;20583;-65
2023/10/27 11:08:56;;;;;;;2.38;0.30;;;;;;;14.33;95.39;98632.59;7358860;19;20014;-66
2023/10/27 11:11:23;;;;;;;3.50;0.50;;;;;;;14.32;95.87;98625.72;7362071;19;20025;-66
2023/10/27 11:14:10;;;;;;;4.20;0.40;;;;;;;14.29;94.96;98634.91;7359786;19;20014;-66
2023/10/27 11:16:37;;;;;;;3.72;0.32;;;;;;;14.32;95.08;98639.75;7356629;19;20576;-65
2023/10/27 11:19:18;;;;;;;3.35;0.30;;;;;;;14.37;95.08;98642.53;7354743;19;21808;-65
2023/10/27 11:21:54;;;;;;;4.55;0.30;;;;;;;14.42;94.89;98640.00;7357784;19;20111;-66
2023/10/27 11:24:23;;;;;;;5.32;1.52;;;;;;;14.55;95.00;98638.94;7357583;19;20015;-66
2023/10/27 11:26:50;;;;;;;1.58;0.40;;;;;;;14.62;94.40;98636.97;7365254;19;20019;-66
2023/10/27 11:29:20;;;;;;;1.48;0.30;;;;;;;14.75;94.69;98635.91;7362999;19;20648;-65